EZY16AW EGKK-EHAM
Flight info
| Callsign | EZY16AW |
|---|---|
| Flight time | 1h 2m |
| Altitude | 27000 |
| Route | FRANE M604 GASBA M197 REDFA |
| Aircraft | A20N/M-SDE2E3FGHIRWXY/LB1 |
Departure
| Time | 2026-04-29 18:54 |
|---|---|
| Airport | London Gatwick Airport (EGKK) |
Arrival
| Time | 2026-04-29 19:57 |
|---|---|
| Airport | Amsterdam Airport Schiphol (EHAM) |
| Time | Latitude | Longitude | Altitude | Speed | Heading |
|---|---|---|---|---|---|
| 2026-04-29 18:17 | 51.15858 | -0.17513 | 204 ft | 0 kts | 348° |
| 2026-04-29 18:35 | 51.15853 | -0.17511 | 204 ft | 1 kts | 348° |
| 2026-04-29 18:36 | 51.15845 | -0.17509 | 211 ft | 1 kts | 348° |
| 2026-04-29 18:36 | 51.15837 | -0.17506 | 208 ft | 1 kts | 348° |
| 2026-04-29 18:36 | 51.15830 | -0.17504 | 204 ft | 1 kts | 348° |
| 2026-04-29 18:36 | 51.15822 | -0.17501 | 204 ft | 1 kts | 348° |
| 2026-04-29 18:37 | 51.15813 | -0.17498 | 209 ft | 2 kts | 348° |
| 2026-04-29 18:37 | 51.15799 | -0.17492 | 214 ft | 2 kts | 341° |
| 2026-04-29 18:37 | 51.15785 | -0.17483 | 207 ft | 2 kts | 324° |
| 2026-04-29 18:37 | 51.15774 | -0.17467 | 217 ft | 2 kts | 297° |
| 2026-04-29 18:38 | 51.15769 | -0.17445 | 214 ft | 2 kts | 269° |
| 2026-04-29 18:38 | 51.15769 | -0.17437 | 213 ft | 0 kts | 267° |
| 2026-04-29 18:42 | 51.15769 | -0.17439 | 214 ft | 2 kts | 264° |
| 2026-04-29 18:42 | 51.15761 | -0.17491 | 206 ft | 8 kts | 256° |
| 2026-04-29 18:42 | 51.15744 | -0.17613 | 206 ft | 15 kts | 258° |
| 2026-04-29 18:42 | 51.15717 | -0.17802 | 209 ft | 18 kts | 258° |
| 2026-04-29 18:43 | 51.15690 | -0.17995 | 214 ft | 17 kts | 258° |
| 2026-04-29 18:43 | 51.15667 | -0.18176 | 208 ft | 16 kts | 258° |
| 2026-04-29 18:43 | 51.15638 | -0.18326 | 207 ft | 12 kts | 224° |
| 2026-04-29 18:43 | 51.15568 | -0.18335 | 207 ft | 10 kts | 169° |
| 2026-04-29 18:44 | 51.15506 | -0.18314 | 208 ft | 8 kts | 166° |
| 2026-04-29 18:44 | 51.15453 | -0.18295 | 214 ft | 8 kts | 168° |
| 2026-04-29 18:44 | 51.15399 | -0.18276 | 208 ft | 9 kts | 168° |
| 2026-04-29 18:44 | 51.15332 | -0.18256 | 210 ft | 11 kts | 168° |
| 2026-04-29 18:45 | 51.15250 | -0.18225 | 207 ft | 12 kts | 166° |
| 2026-04-29 18:45 | 51.15183 | -0.18283 | 211 ft | 14 kts | 251° |
| 2026-04-29 18:45 | 51.15162 | -0.18455 | 206 ft | 18 kts | 260° |
| 2026-04-29 18:45 | 51.15133 | -0.18669 | 203 ft | 19 kts | 258° |
| 2026-04-29 18:46 | 51.15101 | -0.18911 | 203 ft | 25 kts | 258° |
| 2026-04-29 18:46 | 51.15069 | -0.19142 | 206 ft | 20 kts | 257° |
| 2026-04-29 18:46 | 51.15037 | -0.19380 | 211 ft | 23 kts | 257° |
| 2026-04-29 18:46 | 51.15001 | -0.19641 | 204 ft | 26 kts | 257° |
| 2026-04-29 18:47 | 51.14962 | -0.19918 | 204 ft | 25 kts | 258° |
| 2026-04-29 18:47 | 51.14925 | -0.20200 | 212 ft | 27 kts | 256° |
| 2026-04-29 18:47 | 51.14886 | -0.20475 | 206 ft | 25 kts | 258° |
| 2026-04-29 18:47 | 51.14846 | -0.20757 | 203 ft | 27 kts | 258° |
| 2026-04-29 18:48 | 51.14811 | -0.21028 | 212 ft | 22 kts | 257° |
| 2026-04-29 18:48 | 51.14767 | -0.21266 | 209 ft | 8 kts | 256° |
| 2026-04-29 18:48 | 51.14766 | -0.21277 | 209 ft | 0 kts | 257° |
| 2026-04-29 18:51 | 51.14766 | -0.21278 | 209 ft | 1 kts | 257° |
| 2026-04-29 18:51 | 51.14757 | -0.21343 | 204 ft | 11 kts | 258° |
| 2026-04-29 18:52 | 51.14714 | -0.21397 | 210 ft | 8 kts | 179° |
| 2026-04-29 18:52 | 51.14661 | -0.21361 | 216 ft | 8 kts | 138° |
| 2026-04-29 18:52 | 51.14647 | -0.21343 | 204 ft | 0 kts | 145° |
| 2026-04-29 18:53 | 51.14633 | -0.21333 | 210 ft | 6 kts | 157° |
| 2026-04-29 18:53 | 51.14554 | -0.21282 | 214 ft | 19 kts | 142° |
| 2026-04-29 18:54 | 51.14524 | -0.21086 | 204 ft | 28 kts | 77° |
| 2026-04-29 18:54 | 51.14628 | -0.20345 | 212 ft | 107 kts | 78° |
| 2026-04-29 18:54 | 51.14823 | -0.18868 | 367 ft | 155 kts | 78° |
| 2026-04-29 18:54 | 51.15018 | -0.17127 | 1088 ft | 165 kts | 79° |
| 2026-04-29 18:55 | 51.15262 | -0.15366 | 2146 ft | 165 kts | 80° |
| 2026-04-29 18:55 | 51.15524 | -0.13435 | 2730 ft | 191 kts | 81° |
| 2026-04-29 18:55 | 51.15715 | -0.11967 | 3077 ft | 210 kts | 82° |
| 2026-04-29 18:55 | 51.16019 | -0.09529 | 3591 ft | 235 kts | 81° |
| 2026-04-29 18:56 | 51.16377 | -0.07001 | 4478 ft | 239 kts | 81° |
| 2026-04-29 18:56 | 51.16725 | -0.04382 | 4936 ft | 243 kts | 85° |
| 2026-04-29 18:56 | 51.16827 | -0.01657 | 5057 ft | 243 kts | 93° |
| 2026-04-29 18:56 | 51.16775 | 0.01043 | 5029 ft | 243 kts | 94° |
| 2026-04-29 18:57 | 51.16712 | 0.03725 | 4978 ft | 241 kts | 94° |
| 2026-04-29 18:57 | 51.16650 | 0.06387 | 4977 ft | 240 kts | 94° |
| 2026-04-29 18:57 | 51.16587 | 0.09063 | 5016 ft | 244 kts | 94° |
| 2026-04-29 18:57 | 51.16536 | 0.11725 | 5004 ft | 242 kts | 94° |
| 2026-04-29 18:58 | 51.16486 | 0.14432 | 5005 ft | 241 kts | 94° |
| 2026-04-29 18:58 | 51.16440 | 0.17076 | 5037 ft | 242 kts | 92° |
| 2026-04-29 18:58 | 51.16461 | 0.19752 | 5147 ft | 242 kts | 91° |
| 2026-04-29 18:58 | 51.16492 | 0.22438 | 5116 ft | 243 kts | 91° |
| 2026-04-29 18:59 | 51.16517 | 0.25128 | 5126 ft | 241 kts | 91° |
| 2026-04-29 18:59 | 51.16533 | 0.27798 | 5133 ft | 244 kts | 92° |
| 2026-04-29 18:59 | 51.16537 | 0.30495 | 5137 ft | 240 kts | 92° |
| 2026-04-29 18:59 | 51.16527 | 0.33173 | 5142 ft | 244 kts | 92° |
| 2026-04-29 19:00 | 51.16531 | 0.35863 | 5115 ft | 243 kts | 91° |
| 2026-04-29 19:00 | 51.16555 | 0.38546 | 5106 ft | 241 kts | 91° |
| 2026-04-29 19:00 | 51.16563 | 0.41240 | 5094 ft | 244 kts | 92° |
| 2026-04-29 19:00 | 51.16555 | 0.43928 | 5128 ft | 242 kts | 92° |
| 2026-04-29 19:01 | 51.16536 | 0.46620 | 5127 ft | 243 kts | 92° |
| 2026-04-29 19:01 | 51.16526 | 0.49315 | 5091 ft | 245 kts | 92° |
| 2026-04-29 19:01 | 51.16738 | 0.51977 | 5170 ft | 242 kts | 72° |
| 2026-04-29 19:01 | 51.17695 | 0.54251 | 5622 ft | 257 kts | 50° |
| 2026-04-29 19:02 | 51.19229 | 0.55736 | 5767 ft | 265 kts | 24° |
| 2026-04-29 19:02 | 51.21045 | 0.56424 | 5871 ft | 270 kts | 19° |
| 2026-04-29 19:02 | 51.22878 | 0.57062 | 5867 ft | 269 kts | 19° |
| 2026-04-29 19:02 | 51.24696 | 0.57694 | 5820 ft | 268 kts | 19° |
| 2026-04-29 19:03 | 51.26514 | 0.58337 | 5710 ft | 269 kts | 20° |
| 2026-04-29 19:03 | 51.28340 | 0.59038 | 5805 ft | 270 kts | 20° |
| 2026-04-29 19:03 | 51.30176 | 0.59752 | 6389 ft | 272 kts | 20° |
| 2026-04-29 19:03 | 51.32017 | 0.60450 | 7456 ft | 272 kts | 19° |
| 2026-04-29 19:04 | 51.33881 | 0.61149 | 8340 ft | 279 kts | 19° |
| 2026-04-29 19:04 | 51.35797 | 0.61861 | 9279 ft | 285 kts | 19° |
| 2026-04-29 19:04 | 51.37751 | 0.62582 | 10164 ft | 291 kts | 19° |
| 2026-04-29 19:04 | 51.39754 | 0.63324 | 10901 ft | 303 kts | 18° |
| 2026-04-29 19:05 | 51.41889 | 0.64133 | 11270 ft | 327 kts | 18° |
| 2026-04-29 19:05 | 51.44173 | 0.65002 | 11715 ft | 345 kts | 18° |
| 2026-04-29 19:05 | 51.46528 | 0.65891 | 12525 ft | 350 kts | 18° |
| 2026-04-29 19:05 | 51.48914 | 0.66786 | 13387 ft | 355 kts | 17° |
| 2026-04-29 19:06 | 51.51336 | 0.67698 | 14206 ft | 359 kts | 17° |
| 2026-04-29 19:06 | 51.53780 | 0.68620 | 14999 ft | 362 kts | 17° |
| 2026-04-29 19:06 | 51.58716 | 0.70492 | 16580 ft | 367 kts | 17° |
| 2026-04-29 19:07 | 51.61214 | 0.71439 | 17350 ft | 371 kts | 17° |
| 2026-04-29 19:07 | 51.62880 | 0.72072 | 17843 ft | 373 kts | 17° |
| 2026-04-29 19:07 | 51.66276 | 0.73363 | 18802 ft | 377 kts | 17° |
| 2026-04-29 19:07 | 51.68818 | 0.74332 | 19397 ft | 382 kts | 17° |
| 2026-04-29 19:08 | 51.71450 | 0.75336 | 20024 ft | 386 kts | 17° |
| 2026-04-29 19:08 | 51.74043 | 0.76326 | 20616 ft | 391 kts | 17° |
| 2026-04-29 19:08 | 51.76750 | 0.77045 | 21213 ft | 396 kts | 13° |
| 2026-04-29 19:08 | 51.79414 | 0.78123 | 21789 ft | 396 kts | 24° |
| 2026-04-29 19:09 | 51.81846 | 0.80174 | 22365 ft | 394 kts | 40° |
| 2026-04-29 19:09 | 51.83806 | 0.83236 | 22924 ft | 392 kts | 56° |
| 2026-04-29 19:09 | 51.85135 | 0.87044 | 23510 ft | 390 kts | 72° |
| 2026-04-29 19:09 | 51.85885 | 0.91267 | 24061 ft | 391 kts | 79° |
| 2026-04-29 19:10 | 51.86473 | 0.95575 | 24581 ft | 394 kts | 79° |
| 2026-04-29 19:10 | 51.87093 | 0.99903 | 25088 ft | 396 kts | 78° |
| 2026-04-29 19:10 | 51.87785 | 1.04245 | 25580 ft | 400 kts | 77° |
| 2026-04-29 19:10 | 51.88531 | 1.08593 | 26078 ft | 402 kts | 76° |
| 2026-04-29 19:11 | 51.89309 | 1.12962 | 26550 ft | 406 kts | 76° |
| 2026-04-29 19:11 | 51.90103 | 1.17362 | 26998 ft | 408 kts | 76° |
| 2026-04-29 19:11 | 51.90903 | 1.21787 | 27234 ft | 411 kts | 76° |
| 2026-04-29 19:11 | 51.91702 | 1.26225 | 27289 ft | 410 kts | 76° |
| 2026-04-29 19:12 | 51.92499 | 1.30666 | 27293 ft | 410 kts | 76° |
| 2026-04-29 19:12 | 51.93292 | 1.35099 | 27291 ft | 410 kts | 76° |
| 2026-04-29 19:12 | 51.94082 | 1.39538 | 27294 ft | 410 kts | 76° |
| 2026-04-29 19:12 | 51.94603 | 1.42470 | 27293 ft | 409 kts | 76° |
| 2026-04-29 19:13 | 51.95655 | 1.48397 | 27291 ft | 409 kts | 76° |
| 2026-04-29 19:13 | 51.95917 | 1.49879 | 27308 ft | 409 kts | 76° |
| 2026-04-29 19:13 | 51.96701 | 1.54315 | 27300 ft | 409 kts | 76° |
| 2026-04-29 19:13 | 51.97481 | 1.58745 | 27297 ft | 409 kts | 76° |
| 2026-04-29 19:14 | 51.98261 | 1.63185 | 27305 ft | 408 kts | 76° |
| 2026-04-29 19:14 | 51.99036 | 1.67605 | 27299 ft | 408 kts | 76° |
| 2026-04-29 19:14 | 51.99788 | 1.72051 | 27298 ft | 408 kts | 77° |
| 2026-04-29 19:14 | 52.00485 | 1.76525 | 27297 ft | 408 kts | 78° |
| 2026-04-29 19:15 | 52.01164 | 1.80992 | 27295 ft | 407 kts | 78° |
| 2026-04-29 19:15 | 52.01843 | 1.85455 | 27299 ft | 407 kts | 78° |
| 2026-04-29 19:15 | 52.02525 | 1.89918 | 27302 ft | 408 kts | 78° |
| 2026-04-29 19:15 | 52.03211 | 1.94380 | 27299 ft | 407 kts | 78° |
| 2026-04-29 19:16 | 52.03888 | 1.98787 | 27297 ft | 407 kts | 78° |
| 2026-04-29 19:16 | 52.04573 | 2.03245 | 27306 ft | 407 kts | 78° |
| 2026-04-29 19:16 | 52.05256 | 2.07706 | 27299 ft | 406 kts | 78° |
| 2026-04-29 19:16 | 52.05937 | 2.12161 | 27313 ft | 406 kts | 78° |
| 2026-04-29 19:17 | 52.06617 | 2.16624 | 27306 ft | 407 kts | 78° |
| 2026-04-29 19:17 | 52.07295 | 2.21089 | 27306 ft | 406 kts | 78° |
| 2026-04-29 19:17 | 52.07970 | 2.25546 | 27305 ft | 406 kts | 78° |
| 2026-04-29 19:17 | 52.08644 | 2.30011 | 27305 ft | 407 kts | 78° |
| 2026-04-29 19:18 | 52.09315 | 2.34465 | 27309 ft | 406 kts | 78° |
| 2026-04-29 19:18 | 52.09767 | 2.37474 | 27266 ft | 405 kts | 78° |
| 2026-04-29 19:18 | 52.10946 | 2.43206 | 26802 ft | 404 kts | 68° |
| 2026-04-29 19:18 | 52.12109 | 2.47347 | 26262 ft | 401 kts | 67° |
| 2026-04-29 19:19 | 52.13294 | 2.51450 | 25658 ft | 399 kts | 67° |
| 2026-04-29 19:19 | 52.14462 | 2.55524 | 25076 ft | 396 kts | 67° |
| 2026-04-29 19:19 | 52.15610 | 2.59581 | 24619 ft | 390 kts | 67° |
| 2026-04-29 19:19 | 52.16842 | 2.63410 | 24450 ft | 378 kts | 57° |
| 2026-04-29 19:20 | 52.18633 | 2.66477 | 24122 ft | 375 kts | 40° |
| 2026-04-29 19:20 | 52.20883 | 2.68704 | 23442 ft | 379 kts | 32° |
| 2026-04-29 19:20 | 52.23195 | 2.70741 | 22900 ft | 376 kts | 32° |
| 2026-04-29 19:20 | 52.25486 | 2.72755 | 22373 ft | 372 kts | 32° |
| 2026-04-29 19:21 | 52.27757 | 2.74754 | 21843 ft | 369 kts | 32° |
| 2026-04-29 19:21 | 52.30007 | 2.76731 | 21330 ft | 366 kts | 32° |
| 2026-04-29 19:21 | 52.32240 | 2.78697 | 20822 ft | 363 kts | 32° |
| 2026-04-29 19:21 | 52.34452 | 2.80644 | 20331 ft | 360 kts | 32° |
| 2026-04-29 19:22 | 52.36649 | 2.82580 | 19839 ft | 357 kts | 32° |
| 2026-04-29 19:22 | 52.38819 | 2.84491 | 19482 ft | 351 kts | 32° |
| 2026-04-29 19:22 | 52.40957 | 2.86374 | 19377 ft | 351 kts | 32° |
| 2026-04-29 19:22 | 52.43125 | 2.88290 | 19342 ft | 355 kts | 32° |
| 2026-04-29 19:23 | 52.45297 | 2.90212 | 19343 ft | 354 kts | 32° |
| 2026-04-29 19:23 | 52.47466 | 2.92132 | 19345 ft | 354 kts | 32° |
| 2026-04-29 19:23 | 52.49631 | 2.94051 | 19345 ft | 354 kts | 32° |
| 2026-04-29 19:23 | 52.51794 | 2.95967 | 19338 ft | 353 kts | 32° |
| 2026-04-29 19:24 | 52.53953 | 2.97882 | 19156 ft | 353 kts | 32° |
| 2026-04-29 19:24 | 52.56123 | 2.99806 | 18723 ft | 355 kts | 32° |
| 2026-04-29 19:24 | 52.58286 | 3.01730 | 18190 ft | 353 kts | 32° |
| 2026-04-29 19:24 | 52.60446 | 3.03644 | 17545 ft | 353 kts | 32° |
| 2026-04-29 19:25 | 52.62610 | 3.05555 | 16893 ft | 353 kts | 32° |
| 2026-04-29 19:25 | 52.64776 | 3.07462 | 16266 ft | 353 kts | 32° |
| 2026-04-29 19:25 | 52.66937 | 3.09357 | 15652 ft | 352 kts | 32° |
| 2026-04-29 19:25 | 52.69096 | 3.11236 | 15051 ft | 351 kts | 32° |
| 2026-04-29 19:26 | 52.71261 | 3.13103 | 14460 ft | 350 kts | 32° |
| 2026-04-29 19:26 | 52.73414 | 3.14944 | 13887 ft | 347 kts | 32° |
| 2026-04-29 19:26 | 52.75535 | 3.16753 | 13504 ft | 338 kts | 32° |
| 2026-04-29 19:26 | 52.77576 | 3.18491 | 13130 ft | 322 kts | 32° |
| 2026-04-29 19:27 | 52.79532 | 3.20152 | 12777 ft | 314 kts | 32° |
| 2026-04-29 19:27 | 52.81480 | 3.21809 | 12335 ft | 313 kts | 32° |
| 2026-04-29 19:27 | 52.83397 | 3.23442 | 11887 ft | 310 kts | 32° |
| 2026-04-29 19:27 | 52.85263 | 3.25197 | 11438 ft | 306 kts | 42° |
| 2026-04-29 19:28 | 52.86641 | 3.27774 | 11003 ft | 297 kts | 64° |
| 2026-04-29 19:28 | 52.87263 | 3.30982 | 10566 ft | 293 kts | 85° |
| 2026-04-29 19:28 | 52.87057 | 3.34298 | 10132 ft | 292 kts | 107° |
| 2026-04-29 19:28 | 52.86064 | 3.37221 | 9652 ft | 294 kts | 128° |
| 2026-04-29 19:29 | 52.84670 | 3.39724 | 9199 ft | 297 kts | 129° |
| 2026-04-29 19:29 | 52.83265 | 3.42217 | 8743 ft | 295 kts | 130° |
| 2026-04-29 19:29 | 52.81876 | 3.44686 | 8282 ft | 290 kts | 129° |
| 2026-04-29 19:29 | 52.80517 | 3.47105 | 7776 ft | 285 kts | 129° |
| 2026-04-29 19:30 | 52.79195 | 3.49467 | 7472 ft | 273 kts | 129° |
| 2026-04-29 19:30 | 52.77914 | 3.51760 | 7382 ft | 282 kts | 129° |
| 2026-04-29 19:30 | 52.76547 | 3.54218 | 7363 ft | 292 kts | 129° |
| 2026-04-29 19:30 | 52.75172 | 3.56676 | 7364 ft | 290 kts | 129° |
| 2026-04-29 19:31 | 52.73796 | 3.59129 | 7361 ft | 291 kts | 129° |
| 2026-04-29 19:31 | 52.72421 | 3.61581 | 7361 ft | 291 kts | 129° |
| 2026-04-29 19:31 | 52.71043 | 3.64034 | 7359 ft | 292 kts | 129° |
| 2026-04-29 19:31 | 52.69664 | 3.66486 | 7360 ft | 292 kts | 129° |
| 2026-04-29 19:32 | 52.68284 | 3.68940 | 7360 ft | 292 kts | 130° |
| 2026-04-29 19:32 | 52.66899 | 3.71399 | 7361 ft | 292 kts | 130° |
| 2026-04-29 19:32 | 52.65520 | 3.73846 | 7361 ft | 292 kts | 130° |
| 2026-04-29 19:32 | 52.64136 | 3.76298 | 7360 ft | 292 kts | 130° |
| 2026-04-29 19:33 | 52.62754 | 3.78745 | 7361 ft | 292 kts | 130° |
| 2026-04-29 19:33 | 52.61407 | 3.81122 | 7359 ft | 280 kts | 130° |
| 2026-04-29 19:33 | 52.60100 | 3.83423 | 7360 ft | 263 kts | 129° |
| 2026-04-29 19:33 | 52.58891 | 3.85553 | 7360 ft | 260 kts | 129° |
| 2026-04-29 19:34 | 52.57651 | 3.87747 | 7358 ft | 262 kts | 129° |
| 2026-04-29 19:34 | 52.56415 | 3.89927 | 7356 ft | 260 kts | 129° |
| 2026-04-29 19:34 | 52.55184 | 3.92097 | 7359 ft | 260 kts | 129° |
| 2026-04-29 19:34 | 52.53947 | 3.94275 | 7357 ft | 260 kts | 129° |
| 2026-04-29 19:35 | 52.52805 | 3.96558 | 7356 ft | 258 kts | 121° |
| 2026-04-29 19:35 | 52.51948 | 3.99133 | 7359 ft | 257 kts | 111° |
| 2026-04-29 19:35 | 52.51299 | 4.01860 | 7356 ft | 256 kts | 109° |
| 2026-04-29 19:35 | 52.50649 | 4.04571 | 7355 ft | 256 kts | 110° |
| 2026-04-29 19:36 | 52.49991 | 4.07282 | 7356 ft | 256 kts | 110° |
| 2026-04-29 19:36 | 52.49308 | 4.09981 | 7354 ft | 257 kts | 116° |
| 2026-04-29 19:36 | 52.48121 | 4.12183 | 7346 ft | 263 kts | 140° |
| 2026-04-29 19:36 | 52.46614 | 4.13864 | 7178 ft | 262 kts | 142° |
| 2026-04-29 19:37 | 52.45095 | 4.15526 | 6850 ft | 261 kts | 142° |
| 2026-04-29 19:37 | 52.44589 | 4.16081 | 6738 ft | 261 kts | 142° |
| 2026-04-29 19:37 | 52.42095 | 4.18819 | 6114 ft | 258 kts | 142° |
| 2026-04-29 19:37 | 52.40619 | 4.20451 | 5748 ft | 256 kts | 142° |
| 2026-04-29 19:38 | 52.39150 | 4.22079 | 5387 ft | 253 kts | 142° |
| 2026-04-29 19:38 | 52.37699 | 4.23696 | 5026 ft | 251 kts | 142° |
| 2026-04-29 19:38 | 52.36268 | 4.25290 | 4764 ft | 245 kts | 142° |
| 2026-04-29 19:38 | 52.34887 | 4.26816 | 4624 ft | 234 kts | 142° |
| 2026-04-29 19:39 | 52.33537 | 4.28301 | 4280 ft | 234 kts | 142° |
| 2026-04-29 19:39 | 52.32180 | 4.29787 | 3900 ft | 236 kts | 142° |
| 2026-04-29 19:39 | 52.30817 | 4.31267 | 3616 ft | 233 kts | 142° |
| 2026-04-29 19:39 | 52.29491 | 4.32689 | 3438 ft | 225 kts | 142° |
| 2026-04-29 19:40 | 52.28624 | 4.33605 | 3259 ft | 223 kts | 142° |
| 2026-04-29 19:40 | 52.27334 | 4.34943 | 2993 ft | 215 kts | 142° |
| 2026-04-29 19:40 | 52.26095 | 4.36192 | 2691 ft | 204 kts | 142° |
| 2026-04-29 19:40 | 52.25009 | 4.37519 | 2504 ft | 187 kts | 133° |
| 2026-04-29 19:41 | 52.24070 | 4.38888 | 2305 ft | 175 kts | 132° |
| 2026-04-29 19:41 | 52.23190 | 4.40168 | 2116 ft | 164 kts | 132° |
| 2026-04-29 19:41 | 52.22325 | 4.41417 | 1999 ft | 168 kts | 132° |
| 2026-04-29 19:41 | 52.21472 | 4.42663 | 1977 ft | 160 kts | 125° |
| 2026-04-29 19:42 | 52.21065 | 4.44283 | 1987 ft | 157 kts | 94° |
| 2026-04-29 19:42 | 52.21014 | 4.45457 | 1999 ft | 156 kts | 92° |
| 2026-04-29 19:42 | 52.20941 | 4.47820 | 1987 ft | 156 kts | 92° |
| 2026-04-29 19:42 | 52.20882 | 4.49585 | 1989 ft | 156 kts | 92° |
| 2026-04-29 19:43 | 52.20844 | 4.51325 | 1984 ft | 148 kts | 88° |
| 2026-04-29 19:43 | 52.21017 | 4.52948 | 1998 ft | 148 kts | 75° |
| 2026-04-29 19:43 | 52.21433 | 4.54481 | 2025 ft | 147 kts | 66° |
| 2026-04-29 19:43 | 52.21953 | 4.55921 | 1995 ft | 148 kts | 63° |
| 2026-04-29 19:44 | 52.22506 | 4.57338 | 1999 ft | 148 kts | 63° |
| 2026-04-29 19:44 | 52.23038 | 4.58702 | 1988 ft | 137 kts | 63° |
| 2026-04-29 19:44 | 52.23554 | 4.60032 | 1963 ft | 141 kts | 63° |
| 2026-04-29 19:44 | 52.24080 | 4.61379 | 1783 ft | 140 kts | 63° |
| 2026-04-29 19:45 | 52.24590 | 4.62685 | 1629 ft | 131 kts | 63° |
| 2026-04-29 19:45 | 52.25082 | 4.63957 | 1505 ft | 142 kts | 63° |
| 2026-04-29 19:45 | 52.25657 | 4.65477 | 1234 ft | 169 kts | 61° |
| 2026-04-29 19:45 | 52.26356 | 4.67170 | 1183 ft | 195 kts | 60° |
| 2026-04-29 19:46 | 52.27168 | 4.69158 | 1446 ft | 228 kts | 60° |
| 2026-04-29 19:46 | 52.28147 | 4.71373 | 2024 ft | 258 kts | 58° |
| 2026-04-29 19:46 | 52.28919 | 4.73925 | 2000 ft | 247 kts | 80° |
| 2026-04-29 19:46 | 52.28821 | 4.76618 | 2026 ft | 230 kts | 109° |
| 2026-04-29 19:47 | 52.27885 | 4.78629 | 2350 ft | 224 kts | 140° |
| 2026-04-29 19:47 | 52.26599 | 4.79956 | 2811 ft | 212 kts | 142° |
| 2026-04-29 19:47 | 52.25358 | 4.81197 | 2969 ft | 208 kts | 142° |
| 2026-04-29 19:47 | 52.24116 | 4.82447 | 2994 ft | 210 kts | 142° |
| 2026-04-29 19:48 | 52.22877 | 4.83705 | 2992 ft | 210 kts | 142° |
| 2026-04-29 19:48 | 52.22058 | 4.84537 | 2996 ft | 210 kts | 142° |
| 2026-04-29 19:48 | 52.20263 | 4.85831 | 2999 ft | 221 kts | 169° |
| 2026-04-29 19:48 | 52.18721 | 4.85347 | 2999 ft | 236 kts | 201° |
| 2026-04-29 19:49 | 52.17489 | 4.83520 | 2991 ft | 249 kts | 234° |
| 2026-04-29 19:49 | 52.16726 | 4.80953 | 2997 ft | 253 kts | 243° |
| 2026-04-29 19:49 | 52.16005 | 4.78342 | 2991 ft | 252 kts | 242° |
| 2026-04-29 19:49 | 52.15295 | 4.75760 | 2999 ft | 253 kts | 242° |
| 2026-04-29 19:50 | 52.14581 | 4.73160 | 2992 ft | 253 kts | 242° |
| 2026-04-29 19:50 | 52.13858 | 4.70548 | 2994 ft | 253 kts | 242° |
| 2026-04-29 19:50 | 52.13143 | 4.67949 | 2990 ft | 246 kts | 242° |
| 2026-04-29 19:50 | 52.12458 | 4.65439 | 2994 ft | 243 kts | 243° |
| 2026-04-29 19:51 | 52.12113 | 4.62751 | 2980 ft | 247 kts | 274° |
| 2026-04-29 19:51 | 52.12628 | 4.60136 | 2974 ft | 240 kts | 309° |
| 2026-04-29 19:51 | 52.13767 | 4.58374 | 2935 ft | 217 kts | 332° |
| 2026-04-29 19:51 | 52.14992 | 4.56988 | 2732 ft | 214 kts | 332° |
| 2026-04-29 19:52 | 52.16223 | 4.55606 | 2481 ft | 213 kts | 332° |
| 2026-04-29 19:52 | 52.17413 | 4.54257 | 2372 ft | 204 kts | 332° |
| 2026-04-29 19:52 | 52.18572 | 4.52941 | 2160 ft | 201 kts | 337° |
| 2026-04-29 19:52 | 52.19814 | 4.52257 | 1994 ft | 178 kts | 15° |
| 2026-04-29 19:53 | 52.20843 | 4.53102 | 2018 ft | 163 kts | 54° |
| 2026-04-29 19:53 | 52.21472 | 4.54558 | 1995 ft | 151 kts | 65° |
| 2026-04-29 19:53 | 52.21970 | 4.55956 | 1991 ft | 136 kts | 64° |
| 2026-04-29 19:53 | 52.22482 | 4.57283 | 1991 ft | 138 kts | 64° |
| 2026-04-29 19:54 | 52.23514 | 4.59930 | 1975 ft | 140 kts | 63° |
| 2026-04-29 19:54 | 52.24034 | 4.61263 | 1801 ft | 138 kts | 63° |
| 2026-04-29 19:54 | 52.24553 | 4.62594 | 1620 ft | 137 kts | 63° |
| 2026-04-29 19:55 | 52.25067 | 4.63913 | 1351 ft | 141 kts | 63° |
| 2026-04-29 19:55 | 52.25603 | 4.65249 | 1236 ft | 141 kts | 61° |
| 2026-04-29 19:55 | 52.26165 | 4.66626 | 1136 ft | 152 kts | 61° |
| 2026-04-29 19:55 | 52.26765 | 4.68092 | 977 ft | 145 kts | 62° |
| 2026-04-29 19:56 | 52.27242 | 4.69426 | 727 ft | 131 kts | 63° |
| 2026-04-29 19:56 | 52.27712 | 4.70619 | 496 ft | 119 kts | 61° |
| 2026-04-29 19:56 | 52.28137 | 4.71735 | 327 ft | 112 kts | 60° |
| 2026-04-29 19:56 | 52.28567 | 4.72830 | 166 ft | 117 kts | 61° |
| 2026-04-29 19:57 | 52.28992 | 4.73932 | 12 ft | 113 kts | 60° |
| 2026-04-29 19:57 | 52.29248 | 4.74605 | 1 ft | 92 kts | 57° |
| 2026-04-29 19:57 | 52.29511 | 4.75279 | -3 ft | 14 kts | 56° |
| 2026-04-29 19:57 | 52.29543 | 4.75338 | -3 ft | 16 kts | 37° |
| 2026-04-29 19:58 | 52.29655 | 4.75330 | -1 ft | 16 kts | 328° |
| 2026-04-29 19:58 | 52.29697 | 4.75288 | -1 ft | 0 kts | 329° |
| 2026-04-29 19:59 | 52.29698 | 4.75288 | -1 ft | 1 kts | 329° |
| 2026-04-29 19:59 | 52.29741 | 4.75275 | 0 ft | 12 kts | 358° |
| 2026-04-29 19:59 | 52.29792 | 4.75274 | 1 ft | 3 kts | 352° |
| 2026-04-29 19:59 | 52.29821 | 4.75248 | 1 ft | 17 kts | 315° |
| 2026-04-29 20:00 | 52.29921 | 4.75052 | -3 ft | 26 kts | 314° |
| 2026-04-29 20:00 | 52.30029 | 4.74848 | 3 ft | 21 kts | 312° |
| 2026-04-29 20:00 | 52.30125 | 4.74670 | 8 ft | 21 kts | 310° |
| 2026-04-29 20:00 | 52.30224 | 4.74485 | 8 ft | 22 kts | 312° |
| 2026-04-29 20:01 | 52.30335 | 4.74281 | 3 ft | 19 kts | 312° |
| 2026-04-29 20:01 | 52.30457 | 4.74193 | 1 ft | 21 kts | 2° |
| 2026-04-29 20:01 | 52.30617 | 4.74213 | -4 ft | 24 kts | 0° |
| 2026-04-29 20:01 | 52.30790 | 4.74225 | -5 ft | 26 kts | 3° |
| 2026-04-29 20:02 | 52.30973 | 4.74244 | -7 ft | 26 kts | 5° |
| 2026-04-29 20:02 | 52.31152 | 4.74258 | -5 ft | 26 kts | 2° |
| 2026-04-29 20:02 | 52.31323 | 4.74277 | -1 ft | 20 kts | 7° |
| 2026-04-29 20:02 | 52.31392 | 4.74353 | -1 ft | 18 kts | 73° |
| 2026-04-29 20:03 | 52.31401 | 4.74629 | -1 ft | 17 kts | 88° |
| 2026-04-29 20:03 | 52.31410 | 4.74849 | -1 ft | 25 kts | 86° |
| 2026-04-29 20:03 | 52.31417 | 4.75139 | -6 ft | 28 kts | 87° |
| 2026-04-29 20:03 | 52.31423 | 4.75392 | -4 ft | 17 kts | 98° |
| 2026-04-29 20:04 | 52.31344 | 4.75450 | -3 ft | 20 kts | 176° |
| 2026-04-29 20:04 | 52.31191 | 4.75463 | -1 ft | 20 kts | 176° |
| 2026-04-29 20:04 | 52.31103 | 4.75471 | -3 ft | 10 kts | 181° |
| 2026-04-29 20:04 | 52.31051 | 4.75509 | -4 ft | 5 kts | 150° |
| 2026-04-29 20:05 | 52.31051 | 4.75510 | -4 ft | 0 kts | 150° |